Date,TemperatureHighF,TemperatureAvgF,TemperatureLowF,DewpointHighF,DewpointAvgF,DewpointLowF,HumidityHigh,HumidityAvg,HumidityLow,PressureMaxIn,PressureMinIn,WindSpeedMaxMPH,WindSpeedAvgMPH,GustSpeedMaxMPH,PrecipitationSumIn
2013-1-1,34.3,30.3,21.9,33.3,26.4,12.2,97,86,65,30.15,30.00,12,5,14,0.00
2013-1-2,26.6,21.4,14.5,13.4,11.2,7.0,74,64,52,30.32,30.12,13,3,13,0.00
2013-1-3,34.3,21.2,7.0,19.5,11.3,0.1,87,66,51,30.34,30.15,18,5,18,0.00
2013-1-4,33.3,29.3,27.3,24.3,19.3,16.0,84,66,53,30.32,30.18,22,10,22,0.00
2013-1-5,37.0,30.2,25.9,23.7,20.1,15.2,76,66,56,30.45,30.18,15,5,15,0.00
2013-1-6,38.1,35.3,33.1,32.9,27.1,23.1,93,72,63,30.22,30.02,15,6,15,0.08
2013-1-7,34.5,31.5,23.5,29.2,25.0,18.6,83,77,64,30.50,30.21,12,4,12,0.04
2013-1-8,45.1,28.9,17.1,28.1,21.2,14.1,92,75,48,30.44,30.30,12,1,12,0.00
2013-1-9,46.8,36.0,23.4,40.3,30.2,20.8,95,80,63,30.48,30.24,19,6,19,0.04
2013-1-10,41.0,36.0,27.3,32.7,27.0,23.4,90,70,58,30.68,30.32,9,1,9,0.00
2013-1-11,55.8,45.3,37.4,52.9,38.6,25.0,95,79,55,30.33,29.95,9,1,11,0.20
2013-1-12,65.5,52.6,41.9,60.3,49.6,40.0,94,90,81,30.13,29.95,10,1,10,0.00
2013-1-13,68.9,60.9,51.8,57.6,54.2,50.1,94,80,60,29.95,29.83,18,5,18,0.16
2013-1-14,60.3,39.2,31.3,57.4,31.2,22.1,95,74,57,30.44,29.88,16,5,16,0.00
2013-1-15,32.5,29.7,24.8,26.0,22.0,20.0,86,73,63,30.48,30.13,9,2,9,0.00
2013-1-16,37.9,33.8,30.7,36.1,31.5,26.0,95,91,81,30.13,29.90,19,4,19,0.04
2013-1-17,34.9,33.3,32.2,29.2,27.5,25.6,88,79,75,30.25,30.03,15,6,15,0.08
2013-1-18,32.2,26.7,18.3,28.8,13.6,8.0,88,58,47,30.59,30.15,19,7,22,0.00
2013-1-19,53.1,43.2,31.3,24.4,20.1,14.2,49,40,32,30.28,29.84,22,11,22,0.08
2013-1-20,47.3,35.0,23.0,29.5,17.7,9.7,59,49,40,30.21,29.75,25,10,25,0.00
2013-1-21,25.2,21.3,11.7,20.1,11.9,-1.7,89,67,54,30.18,29.96,18,6,18,0.00
2013-1-22,11.7,8.7,6.3,-1.7,-4.5,-7.0,54,54,54,30.38,30.08,16,7,17,0.00
2013-1-23,15.4,10.7,5.5,2.5,-2.6,-7.5,59,54,49,30.41,30.15,16,5,16,0.00
2013-1-24,21.6,14.3,9.1,9.9,0.2,-6.1,81,53,39,30.65,30.11,18,3,18,0.00
2013-1-25,18.7,14.4,9.5,15.7,5.5,-5.8,88,69,49,30.58,30.10,9,1,10,0.00
2013-1-26,27.9,22.4,16.2,23.9,16.9,8.7,92,80,60,30.54,30.13,10,4,10,0.00
2013-1-27,30.9,26.3,13.8,20.7,14.6,8.0,86,61,51,30.59,30.35,6,1,7,0.00
2013-1-28,56.7,42.9,28.9,52.8,39.9,20.7,96,89,71,30.35,29.99,15,5,15,0.28
2013-1-29,66.6,59.1,53.1,61.2,54.0,48.0,87,83,70,30.04,29.76,15,4,15,0.04
2013-1-30,67.8,59.9,49.8,56.9,52.4,44.9,93,78,59,29.79,29.22,30,10,35,1.18
2013-1-31,50.0,29.0,23.2,46.1,20.5,8.5,95,71,49,29.93,29.23,25,12,27,0.08
2013-2-1,23.2,16.7,11.1,17.1,6.1,2.0,77,62,52,30.43,29.84,19,9,24,0.00
2013-2-2,24.3,17.8,10.4,22.5,11.6,1.3,93,77,64,30.40,30.02,16,6,16,0.00
2013-2-3,26.1,23.1,18.3,22.8,18.4,9.7,93,82,62,30.10,29.89,13,5,15,0.00
2013-2-4,26.6,22.0,17.4,23.4,15.6,9.0,91,76,61,30.16,29.90,15,5,15,0.00
2013-2-5,32.7,28.7,25.7,31.2,26.3,22.7,95,91,78,30.02,29.88,10,2,11,0.00
2013-2-6,32.7,27.8,17.1,27.6,19.4,8.6,94,72,48,30.43,29.98,15,4,15,0.00
2013-2-7,43.0,29.5,15.3,26.1,20.2,8.0,83,69,50,30.39,30.03,15,2,15,0.12
2013-2-8,38.8,32.5,24.6,38.1,27.3,17.0,97,81,71,30.21,29.83,18,6,18,0.16
2013-2-9,33.1,25.5,19.9,18.4,15.2,11.3,83,66,48,30.48,30.20,16,4,16,0.00
2013-2-10,48.6,32.2,15.4,24.7,18.1,10.3,85,59,36,30.41,29.98,13,2,13,0.00
2013-2-11,60.8,46.7,37.0,47.4,34.2,22.1,96,65,34,29.98,29.63,30,9,31,0.39
2013-2-12,40.8,34.6,25.5,25.5,22.4,19.1,77,61,51,30.13,29.93,18,5,18,0.00
2013-2-13,37.9,30.1,21.9,32.2,25.4,18.4,95,83,64,29.96,29.71,7,1,7,0.00
2013-2-14,41.5,34.9,29.1,34.9,29.9,26.8,94,83,64,30.01,29.88,16,6,16,0.08
2013-2-15,39.9,35.8,27.9,34.7,26.9,22.0,94,71,53,30.11,29.92,13,6,13,0.00
2013-2-16,30.9,25.2,18.5,22.2,15.4,9.9,80,66,50,30.09,29.97,12,3,12,0.00
2013-2-17,23.5,20.0,16.0,16.6,10.3,1.9,86,67,49,30.32,29.93,15,6,15,0.04
2013-2-18,41.0,25.5,8.4,29.1,10.6,-3.6,76,53,43,30.40,29.89,12,2,12,0.00
2013-2-19,43.5,36.0,24.6,39.9,28.5,12.7,93,75,51,29.96,29.67,24,10,27,0.24
2013-2-20,24.4,20.5,18.0,17.3,10.3,5.8,83,64,50,30.28,29.96,21,9,21,0.00
2013-2-21,25.5,21.4,18.1,17.7,12.5,9.4,86,68,58,30.43,30.21,12,4,12,0.00
2013-2-22,35.4,29.8,20.1,33.9,24.3,12.8,95,80,56,30.34,30.02,15,3,15,0.00
2013-2-23,43.7,35.4,28.2,37.8,31.6,25.8,94,86,72,30.03,29.88,10,1,10,0.00
2013-2-24,32.0,29.4,26.6,28.9,23.4,18.3,95,79,59,30.20,29.89,13,3,13,0.00
2013-2-25,41.7,32.0,21.7,29.0,21.7,18.5,92,68,46,30.29,30.09,9,1,9,0.00
2013-2-26,40.6,35.9,30.2,37.1,27.6,18.9,97,74,49,30.10,29.59,18,4,18,0.75
2013-2-27,44.8,39.5,34.9,41.4,36.6,32.4,96,89,66,29.72,29.56,18,5,18,0.28
2013-2-28,36.1,34.5,33.3,34.9,32.0,27.8,96,91,79,29.82,29.63,15,6,15,0.04
2013-3-1,33.8,30.1,25.3,32.3,25.3,19.6,95,82,72,30.02,29.81,12,6,12,0.00
2013-3-2,28.4,25.7,24.1,22.7,20.1,16.6,89,79,67,29.99,29.95,12,4,12,0.00
2013-3-3,28.9,25.6,23.5,23.0,19.6,14.5,92,78,61,30.06,29.92,12,5,12,0.00
2013-3-4,36.5,27.7,21.7,19.4,16.3,12.8,80,63,47,30.18,30.02,15,5,15,0.00
2013-3-5,44.1,31.0,18.5,22.4,17.5,13.5,87,60,35,30.16,29.71,12,3,14,0.00
2013-3-6,40.3,36.5,32.9,35.6,29.1,21.9,99,76,54,30.15,29.71,16,2,17,0.20
2013-3-7,41.5,35.5,33.1,31.7,28.6,25.2,91,76,58,30.31,30.08,12,4,12,0.00
2013-3-8,40.6,33.6,27.3,27.6,25.6,21.9,85,73,54,30.44,30.27,12,5,12,0.00
2013-3-9,53.1,36.2,21.9,30.0,24.8,19.4,93,67,38,30.46,30.18,7,1,7,0.00
2013-3-10,70.0,51.2,33.3,37.1,32.1,25.6,81,53,29,30.22,29.96,12,3,12,0.00
2013-3-11,63.3,55.0,46.4,49.4,35.3,29.0,91,49,32,29.99,29.67,19,6,20,0.15
2013-3-12,50.4,40.2,36.1,47.8,33.7,26.0,93,78,64,30.00,29.75,18,7,18,0.08
2013-3-13,37.0,32.3,25.7,31.5,25.1,15.7,90,75,50,30.14,29.91,18,7,19,0.00
2013-3-14,37.9,30.1,25.2,20.9,17.1,13.2,78,59,44,30.24,30.10,18,7,18,0.00
2013-3-15,48.9,37.5,26.1,35.9,24.5,13.4,91,60,47,30.14,29.81,21,6,21,0.00
2013-3-16,41.0,37.0,34.2,39.2,35.2,32.0,97,93,91,29.97,29.65,10,2,10,0.08
2013-3-17,35.6,31.8,27.9,32.1,22.9,19.8,93,70,55,30.23,29.97,12,3,12,0.00
2013-3-18,37.9,33.6,29.1,35.8,28.6,19.2,95,82,60,30.20,29.71,16,5,16,0.31
2013-3-19,44.1,37.1,30.0,40.7,26.2,14.7,97,67,41,29.98,29.68,25,9,32,0.43
2013-3-20,39.9,31.3,26.4,24.7,16.6,13.6,66,54,41,29.99,29.83,22,8,23,0.12
2013-3-21,29.7,24.3,18.3,21.9,13.0,4.9,86,63,47,29.93,29.85,13,6,15,0.00
2013-3-22,32.9,28.3,24.3,22.2,18.4,14.7,85,67,54,30.06,29.89,16,6,16,0.00
2013-3-23,44.8,32.7,22.8,26.3,20.6,14.7,84,63,43,30.07,29.97,13,3,13,0.00
2013-3-24,44.1,33.5,23.9,29.6,20.9,16.8,85,61,43,30.04,29.54,16,4,17,0.00
2013-3-25,38.8,35.3,32.5,36.7,33.5,29.0,96,93,83,29.75,29.47,10,1,11,0.24
2013-3-26,42.3,37.0,34.3,34.8,32.0,28.7,95,83,60,30.06,29.72,12,3,12,0.51
2013-3-27,42.6,36.8,33.8,33.6,30.5,23.8,96,80,48,30.15,30.03,15,5,15,0.00
2013-3-28,42.8,38.0,34.3,34.9,30.0,27.0,95,74,56,30.27,30.08,16,5,16,0.00
2013-3-29,52.5,42.8,36.1,32.5,27.7,20.2,78,57,35,30.27,30.11,12,3,12,0.00
2013-3-30,56.5,41.2,25.3,29.7,22.6,17.7,83,51,31,30.27,30.02,13,2,13,0.00
2013-3-31,50.9,44.0,36.1,47.3,36.5,21.2,94,76,47,30.02,29.69,15,4,15,0.04
2013-4-1,47.3,41.0,32.5,44.5,27.3,12.6,91,61,35,30.04,29.66,18,8,18,0.00
2013-4-2,39.7,32.0,26.2,19.3,15.4,9.8,74,51,39,30.20,30.00,15,5,15,0.00
2013-4-3,38.8,31.1,24.8,22.2,13.5,9.4,65,48,37,30.44,30.14,18,4,18,0.00
2013-4-4,56.5,37.1,17.4,24.8,16.0,8.3,80,46,25,30.41,29.95,12,2,12,0.00
2013-4-5,55.6,40.8,27.9,32.4,22.4,16.8,75,49,35,30.19,29.91,22,5,22,0.00
2013-4-6,60.4,41.9,24.1,27.9,20.7,15.6,76,46,24,30.30,29.99,12,3,12,0.00
2013-4-7,71.8,61.1,50.4,44.1,35.9,21.6,58,39,32,30.00,29.80,22,9,22,0.04
2013-4-8,73.9,61.0,44.6,49.7,43.7,38.5,82,55,37,30.04,29.82,21,6,21,0.00
2013-4-9,80.4,69.1,57.7,56.2,50.2,42.6,80,52,37,30.04,29.84,16,6,16,0.00
2013-4-10,79.2,69.3,61.0,62.8,56.6,50.6,93,66,49,29.94,29.72,27,6,27,0.87
2013-4-11,73.4,64.7,54.9,63.3,57.2,49.8,90,78,56,29.88,29.64,12,3,12,0.00
2013-4-12,63.7,57.3,44.6,60.2,49.0,31.4,94,75,49,29.89,29.50,19,7,21,0.51
2013-4-13,51.6,45.4,40.1,34.5,31.8,29.1,72,60,45,30.04,29.85,21,7,21,0.04
2013-4-14,62.1,48.3,32.2,36.8,30.3,23.4,76,51,37,30.18,30.01,12,2,13,0.00
2013-4-15,68.9,61.2,53.6,48.4,44.4,34.0,65,54,43,30.10,29.98,21,8,22,0.00
2013-4-16,77.9,62.9,50.2,60.2,53.0,46.1,93,72,48,30.22,30.03,18,5,18,0.43
2013-4-17,70.5,60.7,50.7,55.5,50.8,45.1,90,72,46,30.27,30.09,12,3,13,0.00
2013-4-18,84.0,71.8,60.6,59.8,56.1,52.1,86,60,37,30.12,29.74,22,8,22,0.00
2013-4-19,70.5,59.7,45.0,61.7,47.6,26.8,87,65,49,30.01,29.46,22,10,28,0.16
2013-4-20,47.7,41.4,35.4,31.6,26.1,20.3,80,55,43,30.43,29.88,19,8,20,0.00
2013-4-21,54.7,40.6,26.6,29.3,22.8,19.2,84,52,32,30.66,30.42,10,2,11,0.00
2013-4-22,63.5,50.6,37.9,35.4,27.4,21.3,61,41,30,30.50,30.30,15,5,15,0.00
2013-4-23,72.0,55.2,36.9,40.2,33.7,27.5,76,47,29,30.31,29.97,12,3,12,0.00
2013-4-24,69.8,55.6,39.2,57.3,45.9,34.5,92,72,48,30.20,29.75,31,9,31,0.39
2013-4-25,59.0,45.7,36.0,40.4,32.9,28.2,89,64,34,30.38,30.19,22,6,22,0.00
2013-4-26,62.6,47.9,35.2,44.3,33.5,27.9,95,63,32,30.52,30.35,10,2,10,0.00
2013-4-27,75.0,55.8,34.2,40.1,34.4,29.1,88,50,27,30.43,30.15,13,3,13,0.00
2013-4-28,60.6,56.4,53.2,55.0,46.1,37.3,93,71,42,30.17,29.98,12,5,14,0.24
2013-4-29,64.6,57.4,52.3,59.4,53.4,47.6,94,87,75,30.04,29.92,9,1,9,0.12
2013-4-30,73.4,62.3,54.3,56.0,52.3,49.0,94,72,46,30.23,30.00,13,3,15,0.00
2013-5-1,77.5,64.3,53.2,51.0,45.3,31.5,84,54,26,30.34,30.19,13,3,13,0.00
2013-5-2,77.2,63.4,45.1,41.5,36.6,31.3,77,39,23,30.40,30.21,13,3,14,0.00
2013-5-3,75.0,62.2,47.1,46.2,40.1,36.3,71,46,29,30.28,30.15,16,4,17,0.00
2013-5-4,71.6,59.9,46.2,43.8,40.0,37.1,75,50,33,30.25,30.07,16,4,16,0.00
2013-5-5,74.1,60.7,45.3,44.8,36.4,26.2,86,45,21,30.17,30.00,18,4,18,0.00
2013-5-6,72.9,58.0,42.3,52.8,43.5,32.6,80,55,38,30.13,30.01,13,2,14,0.00
2013-5-7,70.9,62.4,57.2,55.4,53.2,49.2,83,68,43,30.04,29.95,12,2,15,0.00
2013-5-8,72.7,61.9,55.4,56.7,52.5,44.2,91,70,33,30.01,29.88,9,2,9,0.16
2013-5-9,76.5,63.7,54.7,58.6,52.3,46.7,88,65,33,30.00,29.89,8,1,13,0.00
2013-5-10,72.7,61.6,55.9,62.7,57.3,51.5,92,81,60,30.01,29.81,13,2,18,0.43
2013-5-11,72.3,60.1,52.0,62.7,55.2,46.3,90,79,67,30.06,29.75,15,3,21,0.33
2013-5-12,75.7,48.1,38.7,64.6,33.1,26.9,87,53,36,30.14,29.80,18,5,24,0.74
2013-5-13,52.3,43.3,33.8,34.1,28.1,23.1,87,52,31,30.24,30.03,10,3,11,0.00
2013-5-14,57.0,44.8,29.7,38.7,31.7,23.7,88,57,39,30.25,29.92,10,2,13,0.00
2013-5-15,85.5,66.4,47.6,61.0,51.1,36.0,89,56,34,29.93,29.68,18,4,22,0.00
2013-5-16,81.9,69.8,59.0,63.8,52.8,42.6,92,56,23,29.98,29.75,10,2,11,0.08
2013-5-17,79.5,64.4,48.9,60.5,51.4,43.9,91,62,31,30.13,29.97,7,1,9,0.00
2013-5-18,82.0,67.1,55.4,59.7,52.0,44.4,78,55,32,30.17,30.02,9,1,11,0.00
2013-5-19,76.8,67.7,58.6,62.9,60.0,56.6,93,73,55,30.13,29.97,10,2,10,0.00
2013-5-20,86.0,73.2,61.5,66.9,62.9,58.8,92,68,43,30.06,29.88,9,2,11,0.00
2013-5-21,87.8,76.3,66.7,69.7,65.5,60.6,91,67,39,29.96,29.77,13,3,13,0.04
2013-5-22,86.7,74.1,67.2,68.1,61.7,59.6,81,62,39,29.90,29.76,13,4,17,0.04
2013-5-23,76.1,66.0,60.1,65.0,61.4,56.6,92,81,49,29.88,29.77,13,3,17,1.45
2013-5-24,60.6,45.8,40.3,58.3,38.7,29.5,94,73,50,30.32,29.88,12,3,12,0.04
2013-5-25,61.7,48.6,36.0,38.5,33.4,29.7,83,54,30,30.33,30.21,13,3,13,0.00
2013-5-26,66.7,53.0,37.4,40.2,34.4,28.9,79,47,28,30.32,30.18,9,2,9,0.00
2013-5-27,63.0,49.8,38.7,45.1,38.3,34.1,94,63,35,30.30,30.18,7,1,8,0.00
2013-5-28,79.9,74.3,66.5,67.9,62.8,59.4,88,68,53,30.08,29.98,16,6,16,0.00
2013-5-29,87.1,75.4,62.8,63.3,59.5,56.3,86,59,40,30.12,29.98,19,6,19,0.00
2013-5-30,87.1,74.4,61.0,66.9,61.9,57.3,92,68,37,30.18,30.05,12,2,12,0.00
2013-5-31,88.7,75.9,63.9,67.3,62.6,59.6,92,66,39,30.12,29.95,12,3,13,0.00
2013-6-1,86.9,76.6,67.6,68.6,64.1,61.4,91,67,46,30.02,29.75,18,5,20,0.04
2013-6-2,81.1,73.2,66.9,67.6,60.8,54.8,90,67,44,29.90,29.76,18,5,18,0.04
2013-6-3,69.1,59.4,43.7,58.9,47.8,37.7,88,67,44,30.13,29.84,10,3,10,0.00
2013-6-4,73.6,60.0,41.9,48.4,44.1,37.7,91,59,37,30.19,30.07,7,1,9,0.00
2013-6-5,80.6,65.8,50.7,60.3,52.3,45.5,89,64,45,30.17,29.89,7,2,9,0.00
2013-6-6,70.0,66.4,64.6,66.3,62.5,56.6,92,88,67,29.93,29.77,10,1,10,0.98
2013-6-7,67.5,63.8,57.0,63.0,59.7,53.9,91,86,84,29.89,29.74,7,2,8,0.00
2013-6-8,72.7,62.3,55.4,56.7,54.5,52.8,93,77,51,30.14,29.88,10,2,10,0.00
2013-6-9,79.9,70.3,55.4,64.4,59.0,53.1,94,70,47,30.18,29.96,9,2,9,0.03
2013-6-10,74.5,69.5,62.9,70.8,65.5,59.0,92,87,76,30.02,29.78,15,4,15,0.31
2013-6-11,77.5,69.3,62.8,68.0,63.1,59.0,92,81,58,29.90,29.77,15,4,15,0.04
2013-6-12,80.6,71.9,63.9,69.1,64.7,60.0,92,80,52,29.92,29.62,9,2,9,0.66
2013-6-13,73.9,66.8,60.3,70.8,62.0,53.5,92,85,71,29.86,29.53,18,5,19,1.72
2013-6-14,74.3,63.6,56.3,60.4,55.5,52.0,93,77,50,30.07,29.82,9,2,11,0.00
2013-6-15,79.0,65.5,53.2,59.8,51.1,41.9,94,65,30,30.13,29.96,10,1,10,0.00
2013-6-16,75.4,68.0,62.1,68.5,62.9,56.4,92,84,73,30.03,29.89,16,6,16,0.20
2013-6-17,83.7,73.7,67.1,66.7,61.5,52.7,91,69,37,29.98,29.87,12,3,12,0.00
2013-6-18,76.1,67.8,63.1,65.6,61.8,57.8,92,82,59,29.97,29.85,19,1,20,0.75
2013-6-19,75.4,65.1,55.6,57.9,50.4,43.9,89,62,37,30.16,29.96,6,2,7,0.00
2013-6-20,81.7,66.2,50.7,58.6,51.2,45.3,94,64,33,30.24,30.15,9,1,9,0.00
2013-6-21,85.6,70.3,55.0,62.2,56.8,52.0,93,67,34,30.27,30.14,7,1,7,0.00
2013-6-22,88.5,74.7,60.6,67.7,63.7,58.5,93,71,46,30.20,30.04,10,3,11,0.00
2013-6-23,90.3,77.6,66.9,70.6,65.5,61.0,91,69,42,30.17,30.01,15,3,15,0.00
2013-6-24,90.5,78.3,66.7,69.8,64.9,61.7,91,67,41,30.14,29.94,13,3,13,0.00
2013-6-25,89.8,76.1,65.3,68.6,65.8,60.2,92,73,45,30.04,29.85,19,5,19,0.59
2013-6-26,83.8,74.1,67.6,70.7,66.8,64.2,89,79,56,29.99,29.80,12,3,12,1.50
2013-6-27,77.4,71.9,68.0,73.0,67.6,63.6,91,87,76,29.80,29.63,16,3,16,0.39
2013-6-28,80.1,69.5,63.7,69.2,64.6,58.1,93,85,57,29.68,29.47,15,3,17,1.06
2013-6-29,82.2,70.2,64.9,66.8,62.9,58.7,92,79,48,29.72,29.53,13,4,13,0.12
2013-6-30,82.8,69.7,63.3,69.7,64.5,60.3,92,84,54,29.87,29.68,15,1,15,0.28
2013-7-1,75.4,70.6,66.7,69.3,65.6,64.0,92,84,71,29.95,29.80,7,2,8,0.79
2013-7-2,86.9,75.9,67.8,73.5,67.7,65.2,92,77,51,30.04,29.92,10,2,10,0.12
2013-7-3,88.3,76.6,69.2,71.9,68.4,65.8,93,78,51,30.16,30.04,12,3,12,0.00
2013-7-4,89.1,76.1,69.4,72.6,69.1,64.4,94,81,49,30.22,30.10,18,2,25,0.35
2013-7-5,85.8,77.1,69.6,73.4,68.8,66.1,94,77,54,30.18,30.07,15,3,15,0.04
2013-7-6,89.1,75.6,70.2,73.9,70.4,67.5,94,85,54,30.17,30.02,9,2,9,0.08
2013-7-7,77.7,73.8,70.7,72.3,69.6,67.5,94,87,73,30.11,30.00,13,4,13,0.28
2013-7-8,84.0,72.7,67.1,69.0,67.1,64.6,95,84,57,30.11,30.05,12,4,12,0.04
2013-7-9,83.8,76.4,70.2,75.5,71.6,67.7,92,85,74,30.08,29.96,16,6,16,0.32
2013-7-10,86.0,72.8,67.6,77.9,69.8,65.2,96,90,75,29.99,29.80,18,4,20,1.97
2013-7-11,75.9,70.6,63.3,67.3,61.4,55.6,92,74,51,30.03,29.89,6,2,6,0.00
2013-7-12,74.8,67.1,59.0,65.6,61.6,56.6,95,83,69,30.14,29.99,7,1,7,0.00
2013-7-13,80.1,71.6,62.1,69.7,65.4,60.2,95,82,68,30.23,30.08,7,1,8,0.00
2013-7-14,90.1,78.5,68.0,72.7,68.3,66.1,95,73,46,30.29,30.19,12,2,12,0.00
2013-7-15,92.8,79.5,69.3,73.7,70.0,67.1,94,75,45,30.35,30.19,10,2,10,0.00
2013-7-16,89.4,77.5,71.8,76.1,72.5,69.6,94,85,60,30.31,30.19,12,1,12,0.00
2013-7-17,91.2,78.7,72.7,78.3,73.8,70.1,93,85,60,30.28,30.14,9,1,9,0.00
2013-7-18,93.0,81.6,73.4,78.1,74.6,70.5,93,81,55,30.16,29.99,12,2,12,0.00
2013-7-19,93.2,81.0,73.9,76.5,72.9,67.9,93,78,48,30.01,29.82,22,5,22,0.00
2013-7-20,84.7,76.4,71.8,72.7,69.9,67.7,92,81,63,29.92,29.81,16,6,16,0.00
2013-7-21,82.4,72.6,69.3,72.5,69.5,67.5,94,91,65,29.96,29.88,6,1,6,0.24
2013-7-22,78.3,72.0,67.6,74.4,69.2,65.2,95,91,81,29.96,29.76,12,1,12,0.83
2013-7-23,84.4,73.5,65.8,71.2,67.8,63.8,95,83,56,29.78,29.68,15,3,15,0.12
2013-7-24,71.6,65.9,60.1,66.2,56.8,51.6,95,74,53,30.01,29.74,7,3,8,0.08
2013-7-25,75.4,63.8,54.0,55.6,52.6,49.4,95,69,43,30.10,30.00,7,2,7,0.00
2013-7-26,82.2,67.5,55.8,65.4,57.0,53.4,97,73,41,30.13,30.02,9,2,9,0.00
2013-7-27,72.7,65.8,59.4,69.9,63.7,57.6,96,93,84,30.03,29.85,12,1,12,1.26
2013-7-28,77.4,68.9,59.4,66.7,61.0,54.4,94,78,49,30.04,29.83,13,3,13,0.12
2013-7-29,75.2,64.3,54.7,59.8,54.4,51.2,97,73,48,30.19,30.03,16,3,16,0.00
2013-7-30,78.6,65.7,53.2,61.7,56.8,52.1,96,76,47,30.27,30.15,10,1,10,0.00
2013-7-31,79.7,67.5,58.8,66.8,62.4,57.6,96,85,55,30.19,29.96,13,1,13,0.00
2013-8-1,77.5,69.1,65.3,69.3,64.8,60.2,95,87,62,29.96,29.86,9,3,9,0.04
2013-8-2,77.5,68.4,59.4,65.6,58.9,52.5,96,74,44,30.01,29.90,19,3,19,0.00
2013-8-3,79.2,70.2,59.9,69.1,62.0,53.5,95,77,49,30.03,29.89,16,5,16,0.20
2013-8-4,74.3,64.4,55.4,62.3,55.4,51.5,96,75,48,30.09,30.00,9,2,9,0.24
2013-8-5,71.8,61.7,53.1,59.1,54.5,50.7,96,79,48,30.17,30.02,7,1,7,0.00
2013-8-6,82.2,68.0,56.7,62.9,57.8,53.6,97,74,41,30.06,29.94,10,1,10,0.00
2013-8-7,83.8,70.5,62.1,72.7,66.1,60.6,95,87,66,30.00,29.92,13,2,13,0.39
2013-8-8,85.8,75.4,68.0,75.6,70.0,65.4,93,84,67,29.99,29.87,12,3,12,0.00
2013-8-9,79.3,74.2,67.3,74.9,70.1,64.2,94,87,72,30.02,29.85,12,2,12,0.00
2013-8-10,80.6,70.9,63.5,66.7,63.1,60.1,95,78,54,30.11,30.02,10,1,10,0.00
2013-8-11,81.7,70.8,62.4,65.9,61.4,57.6,88,73,54,30.15,29.99,9,1,9,0.00
2013-8-12,84.9,73.1,63.5,69.7,64.2,60.8,95,77,48,30.06,29.86,12,2,12,0.00
2013-8-13,78.1,69.9,57.7,69.1,62.2,50.0,94,78,56,30.01,29.77,12,4,12,0.12
2013-8-14,68.4,59.3,52.0,57.6,51.3,49.1,92,76,52,30.17,29.98,7,2,8,0.00
2013-8-15,72.9,60.0,47.7,57.3,50.5,46.5,97,74,44,30.22,30.10,7,1,7,0.00
2013-8-16,77.2,64.3,54.1,58.1,54.6,52.4,97,74,44,30.19,30.10,7,1,7,0.00
2013-8-17,78.3,66.3,55.8,60.0,55.8,51.5,96,72,41,30.28,30.18,12,2,12,0.00
2013-8-18,71.8,66.2,61.3,64.5,61.1,56.9,95,84,73,30.24,30.13,9,1,9,0.00
2013-8-19,81.3,70.9,65.3,70.5,65.6,62.4,95,84,58,30.15,30.02,10,1,10,0.27
2013-8-20,83.7,70.2,59.9,68.6,61.6,58.5,96,77,44,30.21,30.08,9,1,9,0.00
2013-8-21,85.5,71.8,60.8,68.7,63.3,59.5,96,77,47,30.22,30.02,7,1,8,0.00
2013-8-22,83.8,73.5,67.5,73.3,68.1,65.3,94,84,59,30.08,29.94,12,4,12,0.43
2013-8-23,80.8,72.7,65.1,71.4,63.0,55.7,94,74,46,30.15,29.98,7,1,8,0.04
2013-8-24,79.2,67.8,58.2,60.8,57.4,54.0,94,72,45,30.31,30.14,7,1,7,0.00
2013-8-25,85.3,69.8,57.2,65.0,59.2,56.1,96,73,40,30.38,30.21,12,2,12,0.00
2013-8-26,86.7,73.0,60.6,67.4,62.5,59.1,95,72,46,30.25,29.97,15,4,15,0.00
2013-8-27,81.9,75.1,70.9,73.7,70.0,66.8,92,84,69,30.01,29.90,12,4,12,0.00
2013-8-28,78.1,73.5,70.2,73.5,70.1,66.9,94,89,86,29.95,29.81,10,1,10,2.68
2013-8-29,83.8,75.3,68.7,72.8,67.9,64.2,93,79,53,30.04,29.88,7,0,7,0.00
2013-8-30,88.0,75.5,65.3,73.3,68.0,63.2,95,79,53,30.03,29.78,12,3,12,0.00
2013-8-31,87.6,77.1,71.2,73.5,70.9,68.4,96,83,55,29.85,29.73,13,4,13,0.00
2013-9-1,79.2,73.7,71.1,75.6,71.7,69.9,97,94,86,29.85,29.75,10,2,10,2.05
2013-9-2,86.0,75.1,68.0,74.6,70.3,64.6,97,86,59,29.84,29.71,16,4,16,0.00
2013-9-3,70.5,64.7,59.5,64.9,59.5,53.4,98,84,60,30.04,29.83,7,2,10,0.00
2013-9-4,78.8,65.4,53.1,63.4,57.3,52.8,100,78,48,30.14,30.03,12,3,12,0.00
2013-9-5,73.0,65.6,55.0,62.3,54.8,47.0,94,70,44,30.23,30.06,10,3,11,0.00
2013-9-6,72.7,58.8,47.6,51.2,48.2,44.6,100,72,39,30.30,30.15,7,1,7,0.00
2013-9-7,80.1,64.0,49.3,61.3,53.4,48.7,100,73,41,30.17,29.95,10,2,10,0.00
2013-9-8,77.2,68.4,61.2,69.0,62.8,58.2,95,83,61,30.06,29.90,7,1,7,0.00
2013-9-9,77.4,66.5,55.9,72.5,63.8,54.2,97,91,77,30.14,30.00,9,1,9,0.16
2013-9-10,90.1,79.1,69.8,77.1,73.1,67.7,96,83,62,30.12,30.01,13,5,13,0.00
2013-9-11,86.9,76.1,69.1,76.9,72.9,66.4,97,90,64,30.16,30.00,19,3,20,0.51
2013-9-12,75.6,71.0,62.4,73.7,69.2,61.7,98,94,80,30.01,29.80,15,4,16,0.51
2013-9-13,64.4,59.1,52.0,63.0,54.1,44.7,100,84,58,30.05,29.81,4,4,4,0.00
2013-9-14,65.3,54.1,50.5,48.9,46.6,41.4,93,78,51,30.15,30.05,4,4,4,0.00
2013-9-15,69.6,64.7,56.4,57.6,53.9,49.3,94,69,55,30.17,30.05,12,3,12,0.00
2013-9-16,68.9,60.9,53.1,60.7,55.3,49.9,99,83,59,30.33,30.06,10,2,10,0.16
2013-9-17,68.5,55.4,45.5,49.7,46.2,43.3,99,74,44,30.46,30.26,9,2,9,0.00
2013-9-18,71.6,52.5,43.5,54.9,48.4,42.7,98,87,53,30.31,30.11,9,1,9,0.00
2013-9-19,76.8,66.7,56.5,65.6,59.9,54.5,97,81,55,30.17,30.00,9,1,9,0.00
2013-9-20,79.7,68.8,57.2,70.7,65.0,56.6,99,88,72,30.07,29.83,12,3,12,0.00
2013-9-21,70.3,65.1,59.9,67.9,63.6,58.4,100,95,87,29.84,29.71,12,2,12,1.26
2013-9-22,61.0,57.9,52.9,59.1,53.4,47.0,96,85,63,30.05,29.79,9,2,10,0.00
2013-9-23,57.4,52.1,44.4,50.7,45.6,40.9,95,79,61,30.18,30.05,6,1,6,0.00
2013-9-24,66.7,53.2,42.6,52.1,45.4,41.8,100,62,46,30.17,29.98,9,1,9,0.00
2013-9-25,73.0,58.2,47.7,56.4,51.1,46.8,100,80,46,30.03,29.88,9,1,9,0.00
2013-9-26,73.8,60.0,49.8,57.3,51.8,48.4,100,78,43,30.11,29.95,6,0,6,0.00
2013-9-27,72.1,60.4,51.6,56.8,53.2,50.8,100,80,50,30.22,30.11,9,1,9,0.00
2013-9-28,71.6,59.8,49.5,62.0,52.8,48.0,100,80,54,30.27,30.16,12,2,12,0.00
2013-9-29,74.5,60.5,48.2,59.6,54.0,47.1,99,81,55,30.18,30.00,10,1,10,0.00
2013-9-30,71.1,61.3,52.2,63.1,57.8,51.8,99,89,73,30.10,29.98,10,2,10,0.00
2013-10-1,77.0,66.1,59.0,66.3,60.1,58.1,98,83,54,30.10,30.00,13,2,13,0.00
2013-10-2,79.9,67.4,58.3,68.3,61.8,57.7,99,84,57,30.11,30.02,13,2,13,0.00
2013-10-3,76.5,66.9,59.2,69.8,64.0,58.3,99,91,75,30.13,30.00,10,1,12,0.67
2013-10-4,81.3,70.7,65.8,72.5,66.8,64.1,98,89,59,30.11,30.01,16,2,16,0.00
2013-10-5,78.8,70.0,65.7,71.2,67.2,63.9,98,91,73,30.11,29.98,16,2,16,0.43
2013-10-6,84.0,74.2,67.6,72.2,65.1,58.6,96,75,51,29.99,29.73,13,3,13,0.00
2013-10-7,72.3,58.8,50.9,61.6,51.1,43.5,99,77,58,30.15,29.68,16,6,16,0.43
2013-10-8,64.2,52.6,42.3,52.0,43.6,40.1,95,74,44,31.85,30.14,9,1,9,0.00
2013-10-9,66.6,54.2,44.7,48.1,42.4,37.8,95,68,38,30.40,30.23,9,1,10,0.00
2013-10-10,67.5,55.8,46.2,48.1,42.9,38.5,87,64,40,30.27,30.12,9,1,9,0.00
2013-10-11,63.5,57.5,52.7,54.4,51.0,46.3,88,79,69,30.14,30.05,7,1,7,0.00
2013-10-12,72.5,62.6,53.8,60.5,54.9,48.6,88,76,57,30.18,30.07,10,2,10,0.00
2013-10-13,69.3,62.6,58.5,60.7,57.0,52.8,93,82,68,30.28,30.18,7,1,9,0.00
2013-10-14,61.0,60.1,59.2,58.0,57.3,56.7,93,91,87,30.31,30.21,6,1,6,0.00
2013-10-15,70.2,62.1,54.0,61.6,56.4,52.0,94,82,65,30.25,29.97,7,1,8,0.00
2013-10-16,63.9,60.3,56.8,60.8,56.9,52.5,93,89,80,30.01,29.88,13,4,13,0.24
2013-10-17,63.0,55.9,51.1,60.0,52.4,49.1,94,88,75,29.96,29.71,13,2,13,0.39
2013-10-18,61.2,52.2,45.1,49.1,42.5,37.2,93,72,43,30.06,29.93,16,5,17,0.04
2013-10-19,54.7,46.3,38.7,48.5,41.6,36.8,94,84,65,30.04,29.77,15,3,15,0.04
2013-10-20,58.1,48.0,40.3,40.7,37.0,34.0,91,68,43,30.10,29.98,16,6,17,0.00
2013-10-21,65.7,52.8,39.0,42.5,35.9,33.3,86,56,33,30.11,29.88,15,4,15,0.00
2013-10-22,57.7,47.7,39.6,46.2,34.9,25.9,93,63,42,30.02,29.83,15,3,15,0.20
2013-10-23,43.5,40.1,37.4,40.2,35.7,31.8,90,84,73,29.96,29.79,12,2,12,0.08
2013-10-24,45.9,38.7,35.1,35.3,30.6,25.6,91,74,47,30.18,29.93,16,5,16,0.00
2013-10-25,48.2,39.9,34.3,36.7,29.9,24.4,88,69,45,30.38,30.15,13,4,13,0.00
2013-10-26,50.4,42.2,33.4,29.9,26.7,24.7,78,56,39,30.30,29.90,19,9,20,0.00
2013-10-27,51.1,42.5,33.6,38.0,30.4,27.1,87,64,43,30.18,29.97,13,2,13,0.00
2013-10-28,58.3,42.5,28.8,42.0,31.4,26.4,93,68,40,30.31,30.13,7,1,7,0.00
2013-10-29,58.8,46.1,34.7,40.5,36.0,31.9,92,70,43,30.45,30.28,7,0,8,0.00
2013-10-30,65.7,52.7,42.3,52.5,43.9,37.6,88,74,47,30.29,30.11,9,1,9,0.00
2013-10-31,66.9,61.9,56.5,59.0,56.3,52.6,92,82,65,30.14,29.47,22,6,22,0.20
2013-11-1,67.8,59.7,53.2,57.5,46.2,39.3,88,62,45,29.71,29.34,24,9,26,0.24
2013-11-2,54.5,49.5,45.1,44.9,41.8,38.5,91,75,60,29.98,29.65,18,4,18,0.04
2013-11-3,48.4,41.1,32.2,42.4,29.5,19.9,90,65,43,30.53,29.97,9,3,9,0.00
2013-11-4,45.5,36.5,28.4,23.0,20.1,17.4,70,52,37,30.63,30.46,10,2,11,0.00
2013-11-5,57.2,45.7,35.1,33.6,27.8,22.9,68,50,40,30.55,30.36,9,1,9,0.00
2013-11-6,71.6,54.7,33.8,55.5,40.8,23.3,91,62,41,30.39,29.92,22,4,22,0.04
2013-11-7,60.3,46.8,39.9,57.0,39.0,23.3,93,75,51,30.17,29.88,15,5,15,0.71
2013-11-8,43.9,38.1,28.6,30.7,25.2,20.6,78,60,46,30.38,30.08,13,4,16,0.00
2013-11-9,56.5,42.8,26.8,32.2,25.7,21.4,88,56,32,30.33,29.95,19,6,20,0.00
2013-11-10,53.8,45.4,38.1,35.3,30.0,25.6,66,55,37,30.30,29.93,19,8,19,0.00
2013-11-11,48.6,41.4,33.3,37.2,28.4,25.5,92,62,41,30.31,30.06,16,6,16,0.00
2013-11-12,36.1,31.1,27.9,32.9,22.9,15.2,95,74,45,30.51,30.12,13,5,13,0.08
2013-11-13,37.2,31.0,25.2,22.7,19.6,16.3,83,64,45,30.59,30.40,16,5,16,0.00
2013-11-14,49.6,37.4,27.3,23.0,19.5,17.0,70,50,34,30.42,30.19,16,6,16,0.00
2013-11-15,56.1,45.2,32.2,32.9,23.3,16.4,56,42,31,30.27,30.13,15,3,15,0.00
2013-11-16,61.2,51.4,35.8,46.5,39.8,30.6,86,65,49,30.27,30.04,10,2,11,0.04
2013-11-17,61.9,56.8,50.0,58.3,52.8,45.6,92,87,71,30.05,29.51,28,5,30,1.22
2013-11-18,57.6,48.6,38.7,48.1,32.3,23.3,76,54,41,30.08,29.58,24,10,24,0.00
2013-11-19,38.7,35.3,27.1,24.8,21.8,18.0,68,58,54,30.48,30.08,13,4,13,0.00
2013-11-20,48.4,35.0,22.6,22.6,17.9,12.6,86,53,32,30.56,30.37,13,3,15,0.00
2013-11-21,54.7,42.6,30.2,35.1,26.2,13.6,68,53,40,30.50,30.24,7,0,8,0.00
2013-11-22,55.2,48.6,36.7,52.6,44.6,30.2,93,86,63,30.30,30.05,16,4,16,0.16
2013-11-23,38.5,30.7,19.9,30.2,20.4,4.7,87,66,47,30.40,30.17,19,6,19,0.00
2013-11-24,24.1,20.0,17.1,15.4,7.7,3.6,75,59,49,30.62,30.37,15,6,15,0.00
2013-11-25,37.4,26.5,15.9,20.8,9.5,4.3,63,49,37,30.57,30.24,18,4,18,0.00
2013-11-26,37.2,34.0,31.1,35.9,31.9,22.4,96,92,60,30.28,29.77,13,1,13,0.94
2013-11-27,37.0,30.1,23.0,35.5,25.6,14.0,94,83,64,30.15,29.71,16,6,17,0.08
2013-11-28,29.3,24.8,18.7,18.8,13.4,9.9,79,62,50,30.48,30.15,15,5,15,0.00
2013-11-29,33.4,28.5,22.5,21.1,17.6,14.7,78,64,52,30.73,30.44,9,1,9,0.00
2013-11-30,40.6,29.5,22.3,22.5,18.6,13.7,79,65,47,30.70,30.29,9,1,9,0.08
2013-12-1,44.8,36.6,24.8,29.7,25.6,19.2,87,66,48,30.30,30.01,12,2,12,0.08
2013-12-2,48.6,40.2,36.0,36.1,31.7,28.3,86,72,55,30.02,29.84,7,0,7,0.04
2013-12-3,54.0,41.4,35.8,44.0,36.3,32.5,94,83,54,29.99,29.87,9,0,9,0.00
2013-12-4,58.3,46.6,34.7,46.2,40.4,32.8,94,80,60,30.05,29.86,12,0,12,0.00
2013-12-5,63.3,56.6,39.7,58.6,50.4,37.3,93,81,65,30.11,29.84,18,6,18,0.59
2013-12-6,39.7,34.6,29.7,37.2,32.4,26.6,95,91,74,30.35,30.05,10,2,10,0.27
2013-12-7,29.8,26.4,18.1,28.1,17.9,9.1,94,71,54,30.65,30.28,10,1,10,0.00
2013-12-8,31.3,23.3,16.9,29.3,17.2,9.0,93,78,65,30.65,30.10,10,2,11,0.00
2013-12-9,41.7,35.3,30.2,39.9,30.3,20.0,95,83,63,30.19,29.96,19,7,19,0.35
2013-12-10,30.2,26.3,22.6,22.9,15.3,7.5,89,64,44,30.30,30.07,19,6,19,0.00
2013-12-11,29.1,23.9,19.8,20.6,11.6,8.5,85,60,48,30.43,30.28,16,6,16,0.00
2013-12-12,22.3,18.3,11.3,13.9,4.4,0.5,79,54,44,30.55,30.27,16,7,17,0.00
2013-12-13,34.5,25.8,20.1,16.8,10.1,3.0,66,51,46,30.33,30.24,16,5,16,0.00
2013-12-14,37.6,31.9,26.4,36.0,27.2,16.6,96,83,64,30.30,29.68,10,1,11,0.07
2013-12-15,40.6,30.5,19.9,38.8,24.3,6.0,94,79,53,30.10,29.62,21,8,21,0.31
2013-12-16,24.3,21.0,16.2,18.2,9.6,6.0,81,61,52,30.25,30.09,13,2,15,0.00
2013-12-17,33.8,29.0,23.0,32.5,24.5,18.2,95,83,68,30.12,29.97,12,2,12,0.00
2013-12-18,29.3,26.9,22.6,23.3,18.6,12.8,86,71,60,30.27,30.04,19,6,19,0.00
2013-12-19,49.8,38.0,26.4,31.2,24.0,17.1,81,58,44,30.14,30.05,18,5,18,0.24
2013-12-20,54.5,48.9,32.9,50.8,37.9,26.2,90,68,43,30.06,29.89,16,6,18,0.00
2013-12-21,62.2,58.6,54.5,59.0,54.6,49.0,92,87,79,29.89,29.66,12,5,12,0.67
2013-12-22,68.0,60.6,54.7,60.4,54.1,45.1,91,79,66,29.95,29.53,27,10,27,0.16
2013-12-23,54.7,39.2,30.2,46.9,31.6,17.3,94,74,56,30.32,29.92,15,4,15,0.04
2013-12-24,30.7,23.2,14.2,23.3,12.2,3.9,88,63,50,30.60,30.25,13,4,13,0.00
2013-12-25,26.1,19.4,10.9,19.5,8.6,0.9,78,62,51,30.58,30.26,7,1,7,0.00
2013-12-26,35.8,30.4,25.2,27.4,20.4,10.4,92,68,46,30.39,30.16,18,6,20,0.00
2013-12-27,41.9,33.0,23.4,24.1,19.1,11.5,66,57,48,30.40,30.27,12,3,12,0.04
2013-12-28,52.3,41.9,32.4,29.3,23.8,18.0,57,49,41,30.28,30.07,16,5,17,0.00
2013-12-29,46.2,41.7,37.4,43.6,33.9,22.2,95,76,45,30.07,29.71,13,2,13,0.59
2013-12-30,40.8,26.5,21.4,39.2,19.4,11.1,94,75,57,30.28,29.83,16,4,16,0.00
2013-12-31,25.2,23.5,22.1,21.1,14.2,8.2,87,67,51,30.37,30.11,22,7,28,0.08
2014-1-1,30.2,26.3,22.6,22.1,19.1,14.9,83,74,66,30.42,30.10,7,1,7,0.00
2014-1-2,28.8,24.5,10.2,27.2,20.3,6.1,95,84,78,30.11,29.73,15,3,15,0.00